TimePDT,TemperatureF,Dew PointF,Humidity,Sea Level PressureIn,VisibilityMPH,Wind Direction,Wind SpeedMPH,Gust SpeedMPH,PrecipitationIn,Events,Conditions,WindDirDegrees,DateUTC
12:56 AM,43.0,41.0,93,29.94,10.0,Calm,Calm,-,N/A,,Clear,0,2013-06-23 07:56:00
1:56 AM,42.1,39.0,89,29.92,10.0,Calm,Calm,-,N/A,,Clear,0,2013-06-23 08:56:00
2:56 AM,39.9,37.9,93,29.91,10.0,Calm,Calm,-,N/A,,Clear,0,2013-06-23 09:56:00
3:56 AM,41.0,39.0,93,29.89,10.0,Calm,Calm,-,N/A,,Overcast,0,2013-06-23 10:56:00
4:56 AM,43.0,39.9,89,29.87,10.0,Calm,Calm,-,N/A,,Overcast,0,2013-06-23 11:56:00
5:56 AM,45.0,42.1,90,29.86,10.0,Calm,Calm,-,N/A,,Overcast,0,2013-06-23 12:56:00
6:56 AM,46.9,44.1,90,29.85,10.0,Calm,Calm,-,N/A,,Overcast,0,2013-06-23 13:56:00
7:56 AM,53.1,48.0,83,29.85,10.0,Calm,Calm,-,N/A,,Overcast,0,2013-06-23 14:56:00
8:56 AM,59.0,46.9,64,29.83,10.0,Calm,Calm,-,N/A,,Mostly Cloudy,0,2013-06-23 15:56:00
9:56 AM,63.0,46.0,54,29.81,10.0,Calm,Calm,-,N/A,,Clear,0,2013-06-23 16:56:00
10:56 AM,64.9,43.0,45,29.81,10.0,Calm,Calm,-,N/A,,Mostly Cloudy,0,2013-06-23 17:56:00
11:56 AM,64.9,45.0,48,29.80,10.0,Calm,Calm,-,0.00,,Overcast,0,2013-06-23 18:56:00
12:56 PM,68.0,45.0,43,29.77,10.0,Calm,Calm,-,N/A,,Mostly Cloudy,0,2013-06-23 19:56:00
1:56 PM,68.0,46.0,45,29.75,10.0,Calm,Calm,-,0.00,,Scattered Clouds,0,2013-06-23 20:56:00
2:56 PM,69.1,48.9,49,29.74,10.0,Calm,Calm,-,N/A,,Mostly Cloudy,0,2013-06-23 21:56:00
3:56 PM,68.0,50.0,52,29.72,10.0,Variable,4.6,-,N/A,,Partly Cloudy,0,2013-06-23 22:56:00
4:56 PM,66.9,50.0,54,29.70,10.0,Variable,4.6,-,N/A,,Mostly Cloudy,0,2013-06-23 23:56:00
5:56 PM,64.9,48.9,56,29.69,10.0,Variable,4.6,-,N/A,,Partly Cloudy,0,2013-06-24 00:56:00
6:56 PM,63.0,48.0,58,29.69,10.0,Calm,Calm,-,N/A,,Overcast,0,2013-06-24 01:56:00
7:56 PM,55.9,52.0,87,29.72,10.0,Calm,Calm,-,0.03,Rain,Light Rain,0,2013-06-24 02:56:00
8:39 PM,55.4,51.8,88,29.74,10.0,Variable,3.5,-,0.00,,Overcast,0,2013-06-24 03:39:00
8:56 PM,54.0,51.1,90,29.70,10.0,Calm,Calm,-,0.00,,Overcast,0,2013-06-24 03:56:00
9:34 PM,53.6,51.8,94,29.75,10.0,Calm,Calm,-,N/A,,Overcast,0,2013-06-24 04:34:00
9:56 PM,54.0,50.0,86,29.70,10.0,Calm,Calm,-,N/A,,Overcast,0,2013-06-24 04:56:00
10:20 PM,53.6,50.0,88,29.75,10.0,Calm,Calm,-,N/A,,Overcast,0,2013-06-24 05:20:00
10:44 PM,53.6,50.0,88,29.75,10.0,Calm,Calm,-,0.00,Rain,Light Rain,0,2013-06-24 05:44:00
10:56 PM,53.1,50.0,89,29.70,7.0,Calm,Calm,-,0.00,Rain,Light Rain,0,2013-06-24 05:56:00
11:56 PM,53.1,51.1,93,29.68,9.0,Calm,Calm,-,0.09,Rain,Light Rain,0,2013-06-24 06:56:00